Time;durP1;ratioP1;P1;durP2;ratioP2;P2;SDS_P1;SDS_P2;PMS_P1;PMS_P2;Temp;Humidity;BMP_temperature;BMP_pressure;BME280_temperature;BME280_humidity;BME280_pressure;Samples;Min_cycle;Max_cycle;Signal;HPM_P1;HPM_P2
2022/01/20 00:03:36;;;;;;;;;;;;;;;5.16;100.00;100486.63;5073163;28;19932;-74
2022/01/20 00:28:09;;;;;;;;;;;;;;;5.25;100.00;100505.84;5073898;28;19930;-74
2022/01/20 00:30:51;;;;;;;;;;;;;;;5.24;100.00;100499.47;5096224;28;20009;-74
2022/01/20 00:33:47;;;;;;;;;;;;;;;5.27;100.00;100509.88;5079161;28;19924;-73
2022/01/20 00:38:33;;;;;;;;;;;;;;;5.23;100.00;100508.97;5096488;28;19963;-74
2022/01/20 00:41:00;;;;;;;;;;;;;;;5.15;100.00;100514.69;5096193;28;20040;-74
2022/01/20 00:43:27;;;;;;;;;;;;;;;5.17;100.00;100524.22;5096099;28;19971;-74
2022/01/20 00:45:55;;;;;;;;;;;;;;;5.42;100.00;100522.16;5095954;28;20367;-74
2022/01/20 00:48:21;;;;;;;;;;;;;;;5.26;100.00;100524.88;5096033;28;19971;-74
2022/01/20 00:50:48;;;;;;;;;;;;;;;5.25;100.00;100531.59;5095934;28;19947;-74
2022/01/20 00:53:16;;;;;;;;;;;;;;;5.19;100.00;100524.69;5096258;28;20416;-73
2022/01/20 00:55:43;;;;;;;;;;;;;;;5.44;100.00;100520.63;5079130;28;20310;-74
2022/01/20 00:58:10;;;;;;;;;;;;;;;5.39;100.00;100520.88;5065118;28;20066;-74
2022/01/20 01:00:37;;;;;;;;;;;;;;;5.43;100.00;100523.75;5074190;28;19928;-74
2022/01/20 01:03:04;;;;;;;;;;;;;;;5.53;100.00;100529.59;5075169;28;19924;-74
2022/01/20 01:05:35;;;;;;;;;;;;;;;5.58;100.00;100523.00;5058181;28;19924;-74
2022/01/20 01:08:05;;;;;;;;;;;;;;;5.90;100.00;100523.84;5076038;28;19928;-74
2022/01/20 01:10:38;;;;;;;;;;;;;;;5.65;100.00;100530.69;5076343;28;20018;-74
2022/01/20 01:13:12;;;;;;;;;;;;;;;5.98;100.00;100528.44;5107355;28;19925;-74
2022/01/20 01:15:44;;;;;;;;;;;;;;;5.95;100.00;100529.97;5075247;28;19925;-74
2022/01/20 01:23:41;;;;;;;;;;;;;;;5.40;100.00;100538.34;5075268;28;19924;-74
2022/01/20 01:26:16;;;;;;;;;;;;;;;5.47;100.00;100541.28;5075259;28;19925;-74
2022/01/20 01:28:44;;;;;;;;;;;;;;;5.42;100.00;100522.94;5106905;28;19931;-74
2022/01/20 01:34:03;;;;;;;;;;;;;;;5.41;100.00;100531.63;5095090;28;20303;-74
2022/01/20 01:36:43;;;;;;;;;;;;;;;5.40;100.00;100533.59;5095334;28;19935;-74
2022/01/20 01:39:11;;;;;;;;;;;;;;;5.33;100.00;100540.91;5078335;28;20366;-74
2022/01/20 01:41:38;;;;;;;;;;;;;;;5.38;100.00;100554.50;5095129;28;20010;-74
2022/01/20 01:44:08;;;;;;;;;;;;;;;5.52;100.00;100561.28;5095084;28;19970;-74
2022/01/20 01:46:38;;;;;;;;;;;;;;;5.50;100.00;100566.34;5096236;28;20015;-74
2022/01/20 01:49:07;;;;;;;;;;;;;;;5.48;100.00;100565.88;5062021;28;20386;-74
2022/01/20 01:51:34;;;;;;;;;;;;;;;5.25;100.00;100578.72;5061628;28;19959;-74
2022/01/20 01:54:01;;;;;;;;;;;;;;;5.10;100.00;100582.19;5078287;28;19924;-74
2022/01/20 01:56:29;;;;;;;;;;;;;;;5.29;100.00;100576.03;5094915;28;19977;-74
2022/01/20 01:58:57;;;;;;;;;;;;;;;5.20;100.00;100590.03;5077846;28;20375;-74
2022/01/20 02:01:47;;;;;;;;;;;;;;;5.15;100.00;100583.94;5077850;28;19924;-74
2022/01/20 02:04:18;;;;;;;;;;;;;;;4.89;100.00;100592.66;5094635;28;19928;-74
2022/01/20 02:20:17;;;;;;;;;;;;;;;5.25;100.00;100598.13;5077516;28;19924;-74
2022/01/20 02:22:51;;;;;;;;;;;;;;;5.47;100.00;100597.56;5078923;28;20267;-74
2022/01/20 02:25:26;;;;;;;;;;;;;;;5.52;100.00;100616.72;5094086;28;19924;-74
2022/01/20 02:27:56;;;;;;;;;;;;;;;5.01;100.00;100600.94;5068355;28;19925;-74
2022/01/20 02:30:25;;;;;;;;;;;;;;;5.05;100.00;100618.47;5057158;28;20322;-74
2022/01/20 02:32:58;;;;;;;;;;;;;;;5.34;100.00;100623.72;5056758;28;19930;-74
2022/01/20 02:35:28;;;;;;;;;;;;;;;5.27;100.00;100642.09;5057272;28;20267;-74
2022/01/20 02:38:04;;;;;;;;;;;;;;;5.03;100.00;100631.88;5073753;28;19986;-74
2022/01/20 02:45:55;;;;;;;;;;;;;;;5.08;100.00;100652.97;5073888;28;19925;-74
2022/01/20 02:48:22;;;;;;;;;;;;;;;5.07;100.00;100654.94;5057266;28;20322;-74
2022/01/20 02:50:49;;;;;;;;;;;;;;;4.99;100.00;100664.22;5057055;28;19968;-74
2022/01/20 02:53:16;;;;;;;;;;;;;;;4.82;100.00;100653.38;5073280;28;20289;-74
2022/01/20 02:55:43;;;;;;;;;;;;;;;5.06;100.00;100646.97;5073102;28;19932;-74
2022/01/20 02:58:10;;;;;;;;;;;;;;;5.02;100.00;100663.50;5073417;28;19958;-74
2022/01/20 03:00:38;;;;;;;;;;;;;;;4.98;100.00;100657.03;5073104;28;20509;-74
2022/01/20 03:03:05;;;;;;;;;;;;;;;4.92;100.00;100663.97;5073039;28;20031;-74
2022/01/20 03:05:33;;;;;;;;;;;;;;;4.99;100.00;100663.38;5073154;28;19924;-74
2022/01/20 03:08:04;;;;;;;;;;;;;;;4.96;100.00;100667.66;5073146;28;19932;-74
2022/01/20 03:10:32;;;;;;;;;;;;;;;4.74;100.00;100672.88;5072918;28;19924;-74
2022/01/20 03:12:59;;;;;;;;;;;;;;;5.07;100.00;100671.56;5056498;28;19924;-74
2022/01/20 03:15:26;;;;;;;;;;;;;;;4.87;100.00;100686.38;5056152;28;19975;-74
2022/01/20 03:17:55;;;;;;;;;;;;;;;4.85;100.00;100691.44;5056677;28;19925;-74
2022/01/20 03:20:22;;;;;;;;;;;;;;;4.95;100.00;100668.81;5072851;28;19924;-74
2022/01/20 03:22:49;;;;;;;;;;;;;;;5.08;100.00;100661.31;5072856;28;19930;-74
2022/01/20 03:25:17;;;;;;;;;;;;;;;5.02;100.00;100671.00;5056316;28;19925;-74
2022/01/20 03:27:46;;;;;;;;;;;;;;;4.95;100.00;100679.88;5079973;28;19928;-74
2022/01/20 03:30:15;;;;;;;;;;;;;;;4.79;100.00;100676.22;5094055;28;20260;-74
2022/01/20 03:32:43;;;;;;;;;;;;;;;4.53;100.00;100684.03;5092260;28;19924;-74
2022/01/20 03:35:13;;;;;;;;;;;;;;;4.57;100.00;100679.44;5092868;28;19924;-74
2022/01/20 03:37:50;;;;;;;;;;;;;;;4.63;100.00;100686.38;5076369;28;20411;-74
2022/01/20 03:40:23;;;;;;;;;;;;;;;4.62;100.00;100681.97;5092937;28;19924;-74
2022/01/20 03:42:50;;;;;;;;;;;;;;;4.57;100.00;100673.91;5092778;28;20449;-74
2022/01/20 03:45:17;;;;;;;;;;;;;;;4.39;100.00;100680.78;5075863;28;20452;-74
2022/01/20 03:47:44;;;;;;;;;;;;;;;4.31;100.00;100675.38;5092697;28;19924;-74
2022/01/20 03:52:57;;;;;;;;;;;;;;;4.34;100.00;100677.44;5093935;28;20420;-74
2022/01/20 03:55:24;;;;;;;;;;;;;;;4.20;100.00;100690.78;5075926;28;19970;-74
2022/01/20 03:58:01;;;;;;;;;;;;;;;4.22;100.00;100689.31;5092678;28;20073;-74
2022/01/20 04:00:31;;;;;;;;;;;;;;;4.21;100.00;100703.50;5092614;28;20126;-74
2022/01/20 04:03:17;;;;;;;;;;;;;;;4.11;100.00;100704.72;5061880;28;19963;-74
2022/01/20 04:05:58;;;;;;;;;;;;;;;3.95;100.00;100711.22;5092592;28;20358;-74
2022/01/20 04:08:44;;;;;;;;;;;;;;;4.05;100.00;100708.84;5092430;28;19924;-74
2022/01/20 04:11:17;;;;;;;;;;;;;;;4.01;100.00;100712.63;5092593;28;20026;-74
2022/01/20 04:13:44;;;;;;;;;;;;;;;3.96;100.00;100713.66;5092376;28;19924;-74
2022/01/20 04:16:19;;;;;;;;;;;;;;;3.95;100.00;100714.81;5075861;28;20382;-74
2022/01/20 04:18:56;;;;;;;;;;;;;;;4.06;100.00;100713.22;5092499;28;19935;-74
2022/01/20 04:21:25;;;;;;;;;;;;;;;4.04;100.00;100715.53;5075694;28;19928;-74
2022/01/20 04:23:53;;;;;;;;;;;;;;;3.96;100.00;100721.97;5092263;28;20449;-74
2022/01/20 04:26:21;;;;;;;;;;;;;;;3.99;100.00;100742.59;5092325;28;19963;-74
2022/01/20 04:28:53;;;;;;;;;;;;;;;3.96;100.00;100740.50;5043090;28;20388;-74
2022/01/20 04:31:21;;;;;;;;;;;;;;;3.92;100.00;100740.38;5072581;28;19928;-74
2022/01/20 04:33:49;;;;;;;;;;;;;;;3.86;100.00;100744.50;5055518;28;19924;-74
2022/01/20 04:36:17;;;;;;;;;;;;;;;3.93;100.00;100742.00;5072033;28;19924;-74
2022/01/20 04:38:45;;;;;;;;;;;;;;;4.02;100.00;100751.03;5071999;28;20005;-74
2022/01/20 04:41:12;;;;;;;;;;;;;;;4.05;100.00;100744.81;5071897;28;20425;-74
2022/01/20 04:43:39;;;;;;;;;;;;;;;3.94;100.00;100751.13;5073741;28;19948;-74
2022/01/20 04:57:14;;;;;;;;;;;;;;;4.07;100.00;100759.13;5075424;28;20340;-74
2022/01/20 04:59:42;;;;;;;;;;;;;;;4.17;100.00;100763.41;5075549;28;19952;-74
2022/01/20 05:02:10;;;;;;;;;;;;;;;4.33;100.00;100762.41;5058711;28;19928;-74
2022/01/20 05:04:55;;;;;;;;;;;;;;;4.24;100.00;100764.47;5075508;28;19947;-74
2022/01/20 05:07:44;;;;;;;;;;;;;;;4.17;100.00;100767.00;5075232;28;19924;-74
2022/01/20 05:10:13;;;;;;;;;;;;;;;4.16;100.00;100770.09;5075251;28;19924;-74
2022/01/20 05:15:20;;;;;;;;;;;;;;;4.20;100.00;100774.59;5058716;28;19931;-74
2022/01/20 05:17:48;;;;;;;;;;;;;;;4.14;100.00;100775.97;5058629;28;19931;-74
2022/01/20 05:20:15;;;;;;;;;;;;;;;4.12;100.00;100772.72;5058491;28;19939;-74
2022/01/20 05:22:44;;;;;;;;;;;;;;;3.97;100.00;100765.06;5074560;28;20379;-74
2022/01/20 05:25:13;;;;;;;;;;;;;;;4.03;100.00;100774.75;5078087;28;19947;-74
2022/01/20 05:27:41;;;;;;;;;;;;;;;4.02;100.00;100769.56;5075827;28;20024;-73
2022/01/20 05:30:09;;;;;;;;;;;;;;;3.97;100.00;100775.31;5081173;28;19928;-74
2022/01/20 05:32:37;;;;;;;;;;;;;;;4.03;100.00;100773.97;5094887;28;19947;-74
2022/01/20 05:35:04;;;;;;;;;;;;;;;3.93;100.00;100786.25;5096441;28;19924;-74
2022/01/20 05:37:33;;;;;;;;;;;;;;;3.86;100.00;100777.69;5095045;28;19928;-74
2022/01/20 05:40:01;;;;;;;;;;;;;;;3.87;100.00;100792.31;5094874;28;19965;-74
2022/01/20 05:42:29;;;;;;;;;;;;;;;3.90;100.00;100798.00;5122447;27;20009;-74
2022/01/20 05:45:04;;;;;;;;;;;;;;;3.80;100.00;100781.81;5057983;28;19928;-74
2022/01/20 05:47:33;;;;;;;;;;;;;;;3.94;100.00;100787.06;5057849;28;19935;-74
2022/01/20 05:50:12;;;;;;;;;;;;;;;3.98;100.00;100775.00;5074326;28;19938;-74
2022/01/20 05:52:41;;;;;;;;;;;;;;;3.91;100.00;100774.72;5058022;28;19925;-74
2022/01/20 05:55:13;;;;;;;;;;;;;;;3.96;100.00;100774.50;5073877;28;20508;-74
2022/01/20 05:57:41;;;;;;;;;;;;;;;3.91;100.00;100773.91;5075374;28;19924;-74
2022/01/20 06:00:11;;;;;;;;;;;;;;;3.94;100.00;100790.63;5057737;28;20334;-74
2022/01/20 06:05:32;;;;;;;;;;;;;;;3.81;100.00;100794.47;5074301;28;20447;-74
2022/01/20 06:07:59;;;;;;;;;;;;;;;3.66;100.00;100792.31;5057410;28;20273;-74
2022/01/20 06:10:27;;;;;;;;;;;;;;;3.78;100.00;100795.16;5090773;28;19924;-74
2022/01/20 06:13:26;;;;;;;;;;;;;;;3.73;100.00;100789.81;5060714;28;20342;-74
2022/01/20 06:15:54;;;;;;;;;;;;;;;3.72;100.00;100790.97;5074178;28;19924;-74
2022/01/20 06:18:21;;;;;;;;;;;;;;;3.88;100.00;100802.25;5075131;28;19966;-74
2022/01/20 06:20:54;;;;;;;;;;;;;;;3.63;100.00;100799.31;5094112;28;19925;-74
2022/01/20 06:23:21;;;;;;;;;;;;;;;3.90;100.00;100798.00;5077311;28;19947;-74
2022/01/20 06:25:49;;;;;;;;;;;;;;;3.74;100.00;100805.28;5094122;28;19924;-73
2022/01/20 06:28:17;;;;;;;;;;;;;;;3.74;100.00;100805.28;5094127;28;19966;-74
2022/01/20 06:30:46;;;;;;;;;;;;;;;3.78;100.00;100816.47;5077868;28;19935;-74
2022/01/20 06:33:13;;;;;;;;;;;;;;;3.67;100.00;100821.56;5094936;28;19924;-74
2022/01/20 06:35:48;;;;;;;;;;;;;;;3.68;100.00;100831.50;5094017;28;19924;-74
2022/01/20 06:38:15;;;;;;;;;;;;;;;3.60;100.00;100826.84;5093688;28;19923;-74
2022/01/20 06:40:43;;;;;;;;;;;;;;;3.49;100.00;100826.41;5093975;28;19928;-73
2022/01/20 06:43:10;;;;;;;;;;;;;;;3.51;100.00;100835.16;5077137;28;19924;-74
2022/01/20 06:45:37;;;;;;;;;;;;;;;3.10;100.00;100837.03;5093761;28;19989;-74
2022/01/20 06:48:09;;;;;;;;;;;;;;;3.18;100.00;100847.22;5093650;28;20018;-74
2022/01/20 06:50:48;;;;;;;;;;;;;;;3.33;100.00;100849.44;5093905;28;19928;-74
2022/01/20 06:53:14;;;;;;;;;;;;;;;3.43;100.00;100849.03;5093605;28;19970;-74
2022/01/20 06:55:41;;;;;;;;;;;;;;;3.44;100.00;100854.25;5093784;28;19924;-74
2022/01/20 06:58:08;;;;;;;;;;;;;;;3.43;100.00;100854.56;5093690;28;19924;-74
2022/01/20 07:00:37;;;;;;;;;;;;;;;3.36;100.00;100843.25;5076818;28;19924;-74
2022/01/20 07:03:04;;;;;;;;;;;;;;;3.43;100.00;100849.03;5093454;28;19924;-73
2022/01/20 07:05:31;;;;;;;;;;;;;;;3.48;100.00;100851.63;5088056;28;19927;-74
2022/01/20 07:07:58;;;;;;;;;;;;;;;3.38;100.00;100863.03;5051857;28;19925;-74
2022/01/20 07:10:25;;;;;;;;;;;;;;;3.45;100.00;100857.81;5081113;28;20328;-73
2022/01/20 07:12:53;;;;;;;;;;;;;;;3.32;100.00;100861.59;5072956;28;19925;-74
2022/01/20 07:15:21;;;;;;;;;;;;;;;3.48;100.00;100855.19;5089952;28;19925;-74
2022/01/20 07:17:50;;;;;;;;;;;;;;;3.46;100.00;100854.72;5056370;28;19931;-74
2022/01/20 07:20:21;;;;;;;;;;;;;;;3.38;100.00;100860.28;5056446;28;19931;-74
2022/01/20 07:23:24;;;;;;;;;;;;;;;3.17;100.00;100870.44;5049493;28;19924;-73
2022/01/20 07:25:56;;;;;;;;;;;;;;;3.24;100.00;100868.78;5056147;28;19931;-74
2022/01/20 07:28:23;;;;;;;;;;;;;;;3.30;100.00;100878.50;5072866;28;19931;-74
2022/01/20 07:30:51;;;;;;;;;;;;;;;3.30;100.00;100866.69;5072759;28;19924;-74
2022/01/20 07:33:20;;;;;;;;;;;;;;;3.19;100.00;100877.28;5072371;28;19924;-74
2022/01/20 07:35:53;;;;;;;;;;;;;;;3.16;100.00;100877.94;5056354;28;19928;-75
2022/01/20 07:38:21;;;;;;;;;;;;;;;3.20;100.00;100883.59;5082259;28;19930;-74
2022/01/20 07:40:48;;;;;;;;;;;;;;;3.04;100.00;100882.53;5076134;28;19924;-74
2022/01/20 07:43:15;;;;;;;;;;;;;;;3.14;100.00;100882.16;5092904;28;19924;-74
2022/01/20 07:45:53;;;;;;;;;;;;;;;3.18;100.00;100888.66;5073651;28;19932;-73
2022/01/20 07:48:27;;;;;;;;;;;;;;;3.16;100.00;100893.69;5072578;28;19952;-75
2022/01/20 07:51:08;;;;;;;;;;;;;;;3.24;100.00;100901.94;5072096;28;19932;-75
2022/01/20 07:53:37;;;;;;;;;;;;;;;3.06;100.00;100903.16;5072313;28;19924;-75
2022/01/20 07:56:09;;;;;;;;;;;;;;;3.10;100.00;100908.84;5052661;28;20335;-77
2022/01/20 07:58:37;;;;;;;;;;;;;;;2.95;100.00;100907.44;5036263;28;19931;-75
2022/01/20 08:01:04;;;;;;;;;;;;;;;2.91;100.00;100913.91;5052427;28;20076;-74
2022/01/20 08:03:37;;;;;;;;;;;;;;;3.02;100.00;100920.72;5068125;28;19974;-75
2022/01/20 08:06:09;;;;;;;;;;;;;;;2.98;100.00;100911.47;5067542;28;19982;-75
2022/01/20 08:08:39;;;;;;;;;;;;;;;2.90;100.00;100917.81;5071987;28;19964;-75
2022/01/20 08:11:25;;;;;;;;;;;;;;;3.01;100.00;100919.09;5052734;28;19932;-78
2022/01/20 08:14:02;;;;;;;;;;;;;;;2.98;100.00;100914.22;5072038;28;19924;-77
2022/01/20 08:16:29;;;;;;;;;;;;;;;2.91;100.00;100927.72;5052104;28;19932;-77
2022/01/20 08:18:57;;;;;;;;;;;;;;;2.97;100.00;100929.97;5055523;28;20237;-74
2022/01/20 08:21:24;;;;;;;;;;;;;;;3.04;100.00;100923.97;5079617;28;19967;-74
2022/01/20 08:23:53;;;;;;;;;;;;;;;3.01;100.00;100941.19;5096613;28;19927;-74
2022/01/20 08:26:20;;;;;;;;;;;;;;;3.05;100.00;100936.63;5096535;28;19930;-74
2022/01/20 08:28:47;;;;;;;;;;;;;;;2.88;100.00;100947.69;5097500;28;20571;-74
2022/01/20 08:31:14;;;;;;;;;;;;;;;3.00;100.00;100934.06;5078831;28;19924;-74
2022/01/20 08:33:41;;;;;;;;;;;;;;;3.02;100.00;100938.09;5079139;28;20360;-74
2022/01/20 08:36:16;;;;;;;;;;;;;;;2.99;100.00;100944.28;5079430;28;19924;-74
2022/01/20 08:38:51;;;;;;;;;;;;;;;3.05;100.00;100956.78;5079375;28;20027;-74
2022/01/20 08:41:18;;;;;;;;;;;;;;;3.13;100.00;100960.66;5079484;28;19928;-74
2022/01/20 08:43:45;;;;;;;;;;;;;;;3.20;100.00;100972.00;5095949;28;19923;-74
2022/01/20 08:46:16;;;;;;;;;;;;;;;3.05;100.00;100964.25;5095996;28;19935;-74
2022/01/20 08:48:43;;;;;;;;;;;;;;;2.99;100.00;100971.06;5096164;28;19928;-74
2022/01/20 08:51:36;;;;;;;;;;;;;;;3.09;100.00;100970.75;5079170;28;20066;-74
2022/01/20 08:54:10;;;;;;;;;;;;;;;3.16;100.00;100966.34;5096015;28;20019;-74
2022/01/20 08:56:38;;;;;;;;;;;;;;;3.12;100.00;100975.63;5095914;28;20011;-74
2022/01/20 08:59:06;;;;;;;;;;;;;;;3.23;100.00;100976.88;5095503;28;19924;-74
2022/01/20 09:01:35;;;;;;;;;;;;;;;3.19;100.00;100971.22;5078421;28;19924;-74
2022/01/20 09:04:03;;;;;;;;;;;;;;;3.07;100.00;100992.34;5083990;28;19932;-74
2022/01/20 09:06:31;;;;;;;;;;;;;;;3.09;100.00;100984.56;5072615;28;20058;-74
2022/01/20 09:09:17;;;;;;;;;;;;;;;3.25;100.00;100997.53;5044805;28;20272;-74
2022/01/20 09:12:02;;;;;;;;;;;;;;;3.28;100.00;101007.09;5059006;28;19931;-74
2022/01/20 09:17:16;;;;;;;;;;;;;;;3.33;100.00;101015.22;5076691;28;20398;-74
2022/01/20 09:19:43;;;;;;;;;;;;;;;3.39;100.00;101016.66;5074522;28;19936;-74
2022/01/20 09:22:12;;;;;;;;;;;;;;;3.28;100.00;101026.44;5040886;28;20256;-74
2022/01/20 09:24:40;;;;;;;;;;;;;;;3.31;100.00;101031.31;5073746;28;20030;-74
2022/01/20 09:27:08;;;;;;;;;;;;;;;3.36;100.00;101020.09;5082980;28;19924;-75
2022/01/20 09:29:36;;;;;;;;;;;;;;;3.41;100.00;101028.19;5075519;28;19924;-77
2022/01/20 09:32:07;;;;;;;;;;;;;;;3.31;100.00;101039.59;5074352;28;19925;-76
2022/01/20 09:34:36;;;;;;;;;;;;;;;3.37;100.00;101041.88;5074700;28;19932;-76
2022/01/20 09:37:03;;;;;;;;;;;;;;;3.47;100.00;101043.44;5074751;28;19929;-78
2022/01/20 09:39:37;;;;;;;;;;;;;;;3.52;100.00;101035.81;5057820;28;19955;-78
2022/01/20 09:42:25;;;;;;;;;;;;;;;3.55;100.00;101028.81;5073645;28;19924;-77
2022/01/20 09:44:54;;;;;;;;;;;;;;;3.41;100.00;101033.72;5054202;28;19925;-76
2022/01/20 09:47:21;;;;;;;;;;;;;;;3.61;100.00;101041.31;5056621;28;19924;-77
2022/01/20 09:49:57;;;;;;;;;;;;;;;3.63;100.00;101045.34;5074631;28;20347;-77
2022/01/20 09:52:31;;;;;;;;;;;;;;;3.69;100.00;101046.00;5074770;28;19959;-77
2022/01/20 09:55:14;;;;;;;;;;;;;;;3.67;100.00;101042.75;5074628;28;19983;-75
2022/01/20 09:57:41;;;;;;;;;;;;;;;3.67;100.00;101054.63;5074055;28;20034;-77
2022/01/20 10:00:10;;;;;;;;;;;;;;;3.72;100.00;101051.69;5056089;28;19990;-77
2022/01/20 10:02:52;;;;;;;;;;;;;;;3.67;100.00;101054.63;5075228;28;19924;-77
2022/01/20 10:05:27;;;;;;;;;;;;;;;3.95;100.00;101063.31;5075290;28;19925;-77
2022/01/20 10:08:07;;;;;;;;;;;;;;;3.62;100.00;101067.81;5074172;28;20388;-77
2022/01/20 10:10:39;;;;;;;;;;;;;;;3.47;100.00;101071.09;5073605;28;19931;-77
2022/01/20 10:13:28;;;;;;;;;;;;;;;3.58;100.00;101067.69;5053948;28;19925;-77
2022/01/20 10:16:19;;;;;;;;;;;;;;;3.62;100.00;101074.16;5054726;28;19928;-77
2022/01/20 10:18:50;;;;;;;;;;;;;;;3.41;100.00;101081.53;5059028;28;20299;-77
2022/01/20 10:21:26;;;;;;;;;;;;;;;3.55;100.00;101079.38;5107654;28;19928;-76
2022/01/20 10:24:06;;;;;;;;;;;;;;;3.38;100.00;101086.88;5073916;28;20295;-76
2022/01/20 10:26:41;;;;;;;;;;;;;;;3.48;100.00;101083.78;5089237;28;20031;-75
2022/01/20 10:29:10;;;;;;;;;;;;;;;3.44;100.00;101060.69;5072245;28;19932;-75
2022/01/20 10:31:36;;;;;;;;;;;;;;;3.58;100.00;101078.72;5056840;28;19975;-76
2022/01/20 10:34:06;;;;;;;;;;;;;;;3.84;100.00;101078.66;5090251;28;20005;-75
2022/01/20 10:36:39;;;;;;;;;;;;;;;4.03;100.00;101084.59;5072569;28;19928;-76
2022/01/20 10:39:34;;;;;;;;;;;;;;;4.14;100.00;101085.84;5062755;28;19966;-76
2022/01/20 10:42:04;;;;;;;;;;;;;;;4.46;100.00;101093.50;5072439;28;19931;-76
2022/01/20 10:44:41;;;;;;;;;;;;;;;4.27;100.00;101092.31;5073219;28;19928;-75
2022/01/20 10:47:24;;;;;;;;;;;;;;;4.14;100.00;101085.03;5107329;28;19959;-76
2022/01/20 10:49:52;;;;;;;;;;;;;;;4.31;100.00;101096.84;5072561;28;19924;-76
2022/01/20 10:52:22;;;;;;;;;;;;;;;4.55;100.00;101094.28;5056622;28;20023;-76
2022/01/20 10:54:51;;;;;;;;;;;;;;;4.76;100.00;101097.06;5039268;28;19931;-76
2022/01/20 10:57:35;;;;;;;;;;;;;;;4.92;100.00;101090.59;5073321;28;20010;-76
2022/01/20 11:00:09;;;;;;;;;;;;;;;4.86;100.00;101108.56;5073018;28;19924;-76
2022/01/20 11:02:47;;;;;;;;;;;;;;;4.44;100.00;101112.41;5073011;28;19928;-76
2022/01/20 11:05:16;;;;;;;;;;;;;;;4.68;100.00;101111.78;5073165;28;20360;-77
2022/01/20 11:07:44;;;;;;;;;;;;;;;4.05;100.00;101114.69;5085591;28;20279;-76
2022/01/20 11:10:13;;;;;;;;;;;;;;;4.58;100.00;101112.16;5072993;28;19947;-77
2022/01/20 11:12:47;;;;;;;;;;;;;;;4.51;100.00;101120.19;5098709;27;20058;-77
2022/01/20 11:15:20;;;;;;;;;;;;;;;4.63;100.00;101128.59;5055595;28;19947;-77
2022/01/20 11:17:51;;;;;;;;;;;;;;;5.15;100.00;101124.34;5053639;28;19925;-77
2022/01/20 11:20:24;;;;;;;;;;;;;;;5.36;100.00;101117.59;5072301;28;19924;-77
2022/01/20 11:23:04;;;;;;;;;;;;;;;4.72;100.00;101124.63;5069631;28;20399;-77
2022/01/20 11:25:36;;;;;;;;;;;;;;;4.52;100.00;101111.56;5070748;28;19924;-77
2022/01/20 11:28:22;;;;;;;;;;;;;;;4.85;100.00;101131.03;5071265;28;20406;-78
2022/01/20 11:31:10;;;;;;;;;;;;;;;5.07;100.00;101117.69;5072160;28;19924;-76
2022/01/20 11:33:50;;;;;;;;;;;;;;;4.88;100.00;101117.34;5050667;28;19939;-76
2022/01/20 11:36:25;;;;;;;;;;;;;;;5.00;100.00;101128.50;5071369;28;19924;-77
2022/01/20 11:39:08;;;;;;;;;;;;;;;5.29;100.00;101128.44;5072292;28;19924;-77
2022/01/20 11:41:49;;;;;;;;;;;;;;;5.18;100.00;101120.88;5071652;28;19924;-77
2022/01/20 11:44:18;;;;;;;;;;;;;;;5.01;100.00;101127.34;5069893;28;20024;-77
2022/01/20 11:46:46;;;;;;;;;;;;;;;5.02;100.00;101111.53;5071184;28;19931;-77
2022/01/20 11:49:15;;;;;;;;;;;;;;;5.29;100.00;101116.53;5069935;28;19936;-77
2022/01/20 11:51:48;;;;;;;;;;;;;;;5.23;100.00;101113.16;5071470;28;19925;-77
2022/01/20 11:54:33;;;;;;;;;;;;;;;4.77;100.00;101110.56;5071596;28;20317;-77
2022/01/20 11:57:07;;;;;;;;;;;;;;;4.22;100.00;101120.16;5055089;28;19924;-77
2022/01/20 11:59:35;;;;;;;;;;;;;;;4.30;100.00;101111.81;5072007;28;20322;-77
2022/01/20 12:02:02;;;;;;;;;;;;;;;4.44;100.00;101117.94;5073046;28;19987;-77
2022/01/20 12:04:33;;;;;;;;;;;;;;;4.59;100.00;101114.59;5071672;28;19931;-77
2022/01/20 12:07:03;;;;;;;;;;;;;;;5.03;100.00;101110.38;5071541;28;19970;-77
2022/01/20 12:09:35;;;;;;;;;;;;;;;4.90;100.00;101103.97;5072702;28;19925;-77
2022/01/20 12:12:04;;;;;;;;;;;;;;;5.08;100.00;101085.25;5071632;28;19925;-77
2022/01/20 12:14:35;;;;;;;;;;;;;;;5.48;100.00;101092.72;5071613;28;20376;-77
2022/01/20 12:17:04;;;;;;;;;;;;;;;5.56;100.00;101100.13;5072730;28;19971;-77
2022/01/20 12:19:33;;;;;;;;;;;;;;;5.33;100.00;101090.56;5088416;28;19974;-77
2022/01/20 12:22:01;;;;;;;;;;;;;;;5.52;100.00;101110.31;5072459;28;19931;-77
2022/01/20 12:24:28;;;;;;;;;;;;;;;4.88;100.00;101111.81;5072562;28;19924;-77
2022/01/20 12:26:56;;;;;;;;;;;;;;;4.76;100.00;101114.50;5071269;28;19931;-77
2022/01/20 12:29:32;;;;;;;;;;;;;;;4.65;100.00;101118.78;5072389;28;20272;-77
2022/01/20 12:32:00;;;;;;;;;;;;;;;4.40;100.00;101122.53;5072630;28;19928;-77
2022/01/20 12:34:27;;;;;;;;;;;;;;;4.90;100.00;101128.91;5072526;28;19925;-77
2022/01/20 12:37:02;;;;;;;;;;;;;;;4.49;100.00;101120.53;5072404;28;20027;-77
2022/01/20 12:39:34;;;;;;;;;;;;;;;4.57;100.00;101110.53;5071226;28;19978;-77
2022/01/20 12:42:02;;;;;;;;;;;;;;;4.33;100.00;101116.69;5072378;28;19924;-77
2022/01/20 12:44:41;;;;;;;;;;;;;;;4.55;100.00;101118.38;5072498;28;20019;-77
2022/01/20 12:47:08;;;;;;;;;;;;;;;4.76;100.00;101125.56;5072494;28;19931;-77
2022/01/20 12:49:35;;;;;;;;;;;;;;;4.49;100.00;101128.84;5072423;28;19925;-77
2022/01/20 12:52:06;;;;;;;;;;;;;;;4.39;100.00;101143.03;5070886;28;19924;-77
2022/01/20 12:54:34;;;;;;;;;;;;;;;4.81;100.00;101128.16;5071173;28;19925;-77
2022/01/20 12:57:02;;;;;;;;;;;;;;;4.48;100.00;101121.69;5071085;28;20295;-77
2022/01/20 12:59:30;;;;;;;;;;;;;;;4.74;100.00;101121.53;5072280;28;19924;-77
2022/01/20 13:02:02;;;;;;;;;;;;;;;4.77;100.00;101131.94;5072323;28;20379;-77
2022/01/20 13:04:30;;;;;;;;;;;;;;;5.21;100.00;101122.97;5050087;28;19970;-77
2022/01/20 13:07:00;;;;;;;;;;;;;;;5.32;100.00;101118.63;5072615;28;19956;-77
2022/01/20 13:09:41;;;;;;;;;;;;;;;5.24;100.00;101120.31;5051860;28;19925;-77
2022/01/20 13:12:12;;;;;;;;;;;;;;;5.10;100.00;101108.69;5076868;28;20485;-77
2022/01/20 13:14:45;;;;;;;;;;;;;;;4.80;100.00;101117.41;5074121;28;19932;-77
2022/01/20 13:17:18;;;;;;;;;;;;;;;5.27;100.00;101114.09;5076606;28;20027;-77
2022/01/20 13:19:47;;;;;;;;;;;;;;;5.26;100.00;101114.44;5091151;28;20006;-77
2022/01/20 13:22:43;;;;;;;;;;;;;;;4.96;100.00;101113.72;5085283;28;19935;-77
2022/01/20 13:25:11;;;;;;;;;;;;;;;4.82;100.00;101112.34;5076560;28;20010;-77
2022/01/20 13:27:49;;;;;;;;;;;;;;;4.77;100.00;101116.13;5073427;28;19924;-78
2022/01/20 13:30:26;;;;;;;;;;;;;;;4.70;100.00;101113.06;5056553;28;19995;-77
2022/01/20 13:32:53;;;;;;;;;;;;;;;4.64;100.00;101117.19;5054925;28;19925;-77
2022/01/20 13:35:22;;;;;;;;;;;;;;;4.72;100.00;101099.72;5056079;28;19932;-78
2022/01/20 13:37:59;;;;;;;;;;;;;;;4.92;100.00;101101.66;5072766;28;19925;-77
2022/01/20 13:40:29;;;;;;;;;;;;;;;4.75;100.00;101112.88;5077497;28;19924;-77
2022/01/20 13:45:41;;;;;;;;;;;;;;;5.58;100.00;101114.47;5076264;28;19924;-77
2022/01/20 13:48:09;;;;;;;;;;;;;;;5.58;100.00;101114.47;5073615;28;20371;-77
2022/01/20 13:50:43;;;;;;;;;;;;;;;5.44;100.00;101113.97;5074574;28;19924;-78
2022/01/20 13:53:17;;;;;;;;;;;;;;;5.21;100.00;101109.13;5074922;28;20015;-77
2022/01/20 13:55:45;;;;;;;;;;;;;;;5.54;100.00;101099.66;5074461;28;19935;-77
2022/01/20 13:58:25;;;;;;;;;;;;;;;5.39;100.00;101097.53;5075727;28;19924;-77
2022/01/20 14:00:53;;;;;;;;;;;;;;;5.40;100.00;101112.22;5075715;28;19925;-77
2022/01/20 14:03:21;;;;;;;;;;;;;;;5.67;100.00;101113.56;5074360;28;19963;-77
2022/01/20 14:05:49;;;;;;;;;;;;;;;5.11;100.00;101103.97;5075497;28;19932;-77
2022/01/20 14:08:18;;;;;;;;;;;;;;;5.11;100.00;101095.66;5074445;28;19931;-77
2022/01/20 14:10:45;;;;;;;;;;;;;;;5.44;100.00;101096.50;5071558;28;20015;-77
2022/01/20 14:13:12;;;;;;;;;;;;;;;5.57;100.00;101089.88;5073218;28;19933;-77
2022/01/20 14:15:39;;;;;;;;;;;;;;;5.57;100.00;101098.97;5074829;28;19931;-78